This is the latest recevied weather packets stored in our database for station/object 9M4GEK-3. If no packets are shown the sender has not sent any weather packets the latest 10 day(s).
| Time | Temp. | Humidity | Pressure | Rain* | Wind** | Luminosity | Snow |
|---|---|---|---|---|---|---|---|
| 1777407427 | 27.78° C | 71% | 1006.3 hPa | - | - | - | - |
| 1777406527 | 27.78° C | 71% | 1006.4 hPa | - | - | - | - |
| 1777404726 | 27.22° C | 71% | 1006.4 hPa | - | - | - | - |
| 1777401125 | 27.22° C | 70% | 1006.6 hPa | - | - | - | - |
| 1777391223 | 27.78° C | 70% | 1008.2 hPa | - | - | - | - |
| 1777389423 | 27.78° C | 68% | 1008.1 hPa | - | - | - | - |
| 1777387623 | 27.78° C | 66% | 1008.1 hPa | - | - | - | - |
| 1777385824 | 28.33° C | 66% | 1008 hPa | - | - | - | - |
| 1777383123 | 28.33° C | 67% | 1007.7 hPa | - | - | - | - |
| 1777382223 | 28.33° C | 67% | 1007.4 hPa | - | - | - | - |
| 1777378655 | 31.11° C | 59% | 1006.6 hPa | - | - | - | - |
| 1777377861 | 30.56° C | 58% | 1005.6 hPa | - | - | - | - |
| 1777376967 | 31.11° C | 56% | 1005.5 hPa | - | - | - | - |
| 1777376822 | 31.11° C | 56% | 1005.5 hPa | - | - | - | - |
| 1777376147 | 30.56° C | 56% | 1005.2 hPa | - | - | - | - |
| 1777375064 | 31.67° C | 53% | 1005.1 hPa | - | - | - | - |
| 1777372321 | 32.78° C | 49% | 1004 hPa | - | - | - | - |
| 1777371523 | 33.33° C | 48% | 1004 hPa | - | - | - | - |
| 1777371421 | 33.33° C | 48% | 1004 hPa | - | - | - | - |
| 1777370521 | 34.44° C | 46% | 1003.6 hPa | - | - | - | - |
| 1777369620 | 34.44° C | 48% | 1003.4 hPa | - | - | - | - |
| 1777368720 | 33.89° C | 48% | 1003.4 hPa | - | - | - | - |
| 1777367820 | 35.56° C | 45% | 1003.4 hPa | - | - | - | - |
| 1777365122 | 42.22° C | 30% | 1003.4 hPa | - | - | - | - |
| 1777364289 | 42.78° C | 30% | 1003.5 hPa | - | - | - | - |
* Rain since midnight (hover to see other rain measurements)
** Current wind speed in m/s (hover to see current wind gust speed)